Salem, South Dakota
Current Conditions -  °F | °C
As of 4:10 PM on Saturday 20 Dec 2014 (Local Time) from KMDS Reporting Station
Moderate Fog Moderate Fog  
Wind Chill: 17°   Ceiling: 300
Heat Index: 28°   Visibility: 0.25mi
Dew Point: 28°   Wind: 14mph
Humidity: 100%   Direction: 180°S
Pressure: 29.98"   Gusts: NA
Location:  43.72°N, 97.39°W
Report Text: KMDS 202210Z AUTO 18012KT 1/4SM FZFG OVC003 M02/M02 A2998 RMK AO2
Loading
Personal Weather Stations






























Interactive Weather Map New forecast layout! Learn more

10-Day Weather Forecast

Advertisements
Track Severe Weather on mobile